Thursday, November 27, 2014
01:42 UTC
  |  Log In   |  Register Free
Airport Search:

Tucson International Airport
(KTUS)

FAA data valid effective November 13, 2014 - January 08, 2015 (unless otherwise noted).

 
 
 
 
 
 
 
 
 
 
 
 
 
 

Current Aviation Weather for Tucson International Airport (KTUS)

The most recent METAR observation for KTUS was updated at: 0130
METAR Summary (Translated METAR)
KTUS
270053Z 35004KT 10SM CLR 18/M09 A3022 RMK AO2 SLP218 T01831094
KDMA
270058Z AUTO 32007KT 10SM CLR 17/M09 A3021 RMK AO2 SLP215 T01701088 $
(4.2 nm NE from KTUS)
KRYN
270050Z 28005KT 10SM CLR 19/M03 A3021
(12 nm NW from KTUS)
TAF Summary (Translated TAF)
KTUS
261720Z 2618/2718 21005KT P6SM SKC FM262100 02008KT P6SM SKC FM270200 VRB04KT P6SM SKC FM270700 14007KT P6SM SKC
KDMA
(4.2 nm NE from KTUS)
2621/2803 33009KT 9999 SKC QNH3016INS BECMG 2703/2704 13009KT 9999 SKC QNH3021INS BECMG 2721/2722 33009KT 9999 SKC QNH3011INS TX26/2721Z TN06/2712Z
  Airport Weather Conditions for KTUS

 Current Weather at TUS
65° F
Fair
North winds at 4.6 mph
TUS NOAA Radar

Pressure: 30.22 in
Humidity: 14%
Wind: North at 4.6 MPH (4 KT)
Dew Point: 15.1°F
Visibility: 10.00 mi


Airport Weather Forecast for KTUS

Translated METAR and TAF for KTUS
Translated METAR for KTUS (0137 UTC 27 November 2014)
found at http://aviationweather.gov/adds/metars/
 
METAR text: KTUS 270053Z 35004KT 10SM CLR 18/M09 A3022 RMK AO2 SLP218 T01831094
Conditions at: KTUS (TUCSON , AZ, US) observed 0053 UTC 27 November 2014
Temperature: 18.3°C (65°F)
Dewpoint: -9.4°C (15°F) [RH = 14%]
Pressure (altimeter): 30.22 inches Hg (1023.5 mb)
[Sea-level pressure: 1021.8 mb]
Winds: from the N (350 degrees) at 5 MPH (4 knots; 2.1 m/s)
Visibility: 10 or more miles (16+ km)
Ceiling: at least 12,000 feet AGL
Clouds: sky clear below 12,000 feet AGL
Weather: no significant weather observed at this time
Translated TAF for KTUS
Forecast for: KTUS (TUCSON , AZ, US)
TAF Text: KTUS 262332Z 2700/2724 35008KT P6SM SKC
Forecast period: 0000 to 0200 UTC 27 November 2014
Forecast type: FROM: standard forecast or significant change
Winds: from the N (350 degrees) at 9 MPH (8 knots; 4.2 m/s)
Visibility: 6 or more miles (10+ km)
Clouds: clear skies
Weather: no significant weather forecast for this period
TAF Text: FM270200 23005KT P6SM SKC
Forecast period: 0200 to 0700 UTC 27 November 2014
Forecast type: FROM: standard forecast or significant change
Winds: from the SW (230 degrees) at 6 MPH (5 knots; 2.6 m/s)
Visibility: 6 or more miles (10+ km)
Clouds: clear skies
Weather: no significant weather forecast for this period
TAF Text: FM270700 13008KT P6SM SKC
Forecast period: 0700 to 2100 UTC 27 November 2014
Forecast type: FROM: standard forecast or significant change
Winds: from the SE (130 degrees) at 9 MPH (8 knots; 4.2 m/s)
Visibility: 6 or more miles (10+ km)
Clouds: clear skies
Weather: no significant weather forecast for this period
TAF Text: FM272100 06007KT P6SM SKC
Forecast period: 2100 UTC 27 November 2014 to 0000 UTC 28 November 2014
Forecast type: FROM: standard forecast or significant change
Winds: from the ENE (60 degrees) at 8 MPH (7 knots; 3.6 m/s)
Visibility: 6 or more miles (10+ km)
Clouds: clear skies
Weather: no significant weather forecast for this period

Find All Airport Services Find A Hotel Find A Rental Car Find A Golf Course Find A Restaurant $100 Hamburger



FBO's on the Field
FBO Company Facility Photos Services Transportation Aviation Fuel Prices: Prices include tax
Catering Weather Repair Courtesy Rental Type 100LL JetA JetA+ MOGAS 8087
 
Bombardier Aerospace

Bombardier Aerospace logo
This FBO has not yet been rated
FS:
Last Updated: Nov-24
Login to update fuel prices
SS:
Contact Bombardier AerospaceMore FBO Information
 
Atlantic Aviation - TUS

Currently rated 4.6 by 2 people
FS:Independent
Last Updated: Nov-26
Login to update fuel prices
SS:
Contact Atlantic Aviation - TUSMore FBO Information
 
Million Air - Tuscon

This FBO has not yet been rated
FS:Independent
Last Updated: Nov-17
Login to update fuel prices
SS:
Contact Million Air - TusconMore FBO Information
 
Million Air Tucson

Currently rated 2.2 by 3 people
FS:Independent
Last Updated: Nov-05
Login to update fuel prices
SS:
Contact Million Air TucsonMore FBO Information
 
Tucson Jet Center

Currently rated 4.4 by 3 people
FS:Independent
Last Updated: Oct-28
Login to update fuel prices
SS:
Contact Tucson Jet CenterMore FBO Information
 
Velocity Air Inc.

This FBO has not yet been rated
FS:Ascent
Last Updated: Nov-21
Login to update fuel prices
SS:
Contact Velocity Air Inc.More FBO Information
 
Add another FBO Facility Photos Catering Weather Repair Courtesy Rental Type 100LL JetA JetA+ MOGAS 8087
Services Transportation Aviation Fuel Prices: Prices include tax


model-print
model-print
model-print
model-print